Data for 03/04/2016

Time Sea-Level Adjusted Pressure Absolute Pressure Temperature Relative Humidity Dew Point   
(mb) (inHg) (mb) (inHg) (C) (F) (%) (C) (F)
00:05 1019 30.09 848 25.04 2 35.7 78 -1.5 29.4
00:10 1019 30.09 848 25.04 2 35.6 78 -1.5 29.4
00:15 1019 30.09 848 25.04 2.1 35.7 75 -1.9 28.7
00:20 1019 30.09 848 25.04 2.1 35.7 74 -2.1 28.2
00:25 1019 30.09 848 25.04 2.3 36.2 72 -2.2 28.1
00:30 1019 30.09 849 25.07 2.5 36.4 73 -1.9 28.5
00:35 1020 30.12 849 25.07 2.4 36.3 73 -1.9 28.5
00:40 1020 30.12 849 25.07 2.3 36.1 73 -2.1 28.3
00:45 1020 30.12 849 25.07 2.3 36.1 74 -1.9 28.5
00:50 1020 30.12 849 25.07 2.2 35.9 74 -2 28.3
00:55 1020 30.12 849 25.07 2.2 36 74 -2 28.3
01:00 1019 30.09 849 25.07 1.8 35.3 77 -1.8 28.7
01:05 1019 30.09 849 25.07 1.3 34.3 78 -2.1 28.3
01:10 1019 30.09 849 25.07 1.1 34 79 -2.1 28.1
01:15 1019 30.09 849 25.07 0.9 33.6 80 -2.2 28
01:20 1019 30.09 849 25.07 0.8 33.4 80 -2.3 27.9
01:25 1019 30.09 849 25.07 0.7 33.3 81 -2.2 28
01:30 1020 30.12 849 25.07 0.8 33.5 80 -2.2 28
01:35 1020 30.12 849 25.07 1.2 34.1 79 -2.2 28.1
01:40 1020 30.12 849 25.07 1.2 34.2 79 -2 28.5
01:45 1020 30.12 849 25.07 1.2 34.2 79 -2 28.4
01:50 1020 30.12 849 25.07 1.1 33.9 80 -2 28.4
01:55 1020 30.12 849 25.07 0.7 33.2 82 -2 28.3
02:00 1020 30.12 849 25.07 0.4 32.8 83 -2.2 28.1
02:05 1020 30.12 849 25.07 0.8 33.4 76 -3 26.7
02:10 1020 30.12 849 25.07 1.1 33.9 77 -2.6 27.4
02:15 1020 30.12 849 25.07 0.7 33.3 78 -2.7 27.2
02:20 1020 30.12 849 25.07 0.7 33.3 75 -3.1 26.3
02:25 1020 30.12 849 25.07 1.1 34 74 -3.1 26.5
02:30 1020 30.12 849 25.07 0.9 33.7 73 -3.4 25.9
02:35 1020 30.12 849 25.07 1 33.8 73 -3.3 26
02:40 1020 30.12 850 25.1 1 33.7 72 -3.5 25.8
02:45 1020 30.12 850 25.1 0.7 33.3 75 -3.3 26.1
02:50 1020 30.12 850 25.1 0.3 32.6 76 -3.5 25.7
02:55 1020 30.12 850 25.1 0.3 32.6 74 -3.7 25.3
03:00 1021 30.15 850 25.1 0.1 32.2 78 -3.3 26.1
03:05 1021 30.15 850 25.1 -0.3 31.4 79 -3.6 25.6
03:10 1021 30.15 850 25.1 -0.6 31 79 -3.7 25.3
03:15 1021 30.15 850 25.1 -0.1 31.8 76 -3.9 25
03:20 1021 30.15 850 25.1 0.6 33.1 71 -4 24.8
03:25 1021 30.15 850 25.1 0.7 33.3 72 -3.8 25.1
03:30 1021 30.15 850 25.1 0.3 32.5 72 -4.1 24.6
03:35 1021 30.15 850 25.1 0.2 32.3 72 -4.3 24.2
03:40 1021 30.15 850 25.1 0.2 32.3 71 -4.4 24.1
03:45 1021 30.15 850 25.1 0.1 32.1 72 -4.4 24
03:50 1021 30.15 850 25.1 0 32 71 -4.6 23.8
03:55 1021 30.15 850 25.1 0.1 32.3 71 -4.5 23.9
04:00 1021 30.15 850 25.1 0.2 32.4 73 -4 24.8
04:05 1021 30.15 850 25.1 0.2 32.4 73 -4.1 24.7
04:10 1021 30.15 850 25.1 0.3 32.6 72 -4.2 24.4
04:15 1021 30.15 850 25.1 0.1 32.3 73 -4.2 24.5
04:20 1021 30.15 850 25.1 -0.1 31.8 74 -4.3 24.3
04:25 1021 30.15 850 25.1 -0.1 31.8 72 -4.5 24
04:30 1021 30.15 850 25.1 0.3 32.5 71 -4.4 24.1
04:35 1021 30.15 850 25.1 0.3 32.6 71 -4.3 24.3
04:40 1021 30.15 850 25.1 0.3 32.5 72 -4.2 24.5
04:45 1021 30.15 850 25.1 0.3 32.5 70 -4.6 23.7
04:50 1021 30.15 850 25.1 0.2 32.4 70 -4.6 23.7
04:55 1021 30.15 850 25.1 0.1 32.3 70 -4.6 23.7
05:00 1021 30.15 850 25.1 0.1 32.2 70 -4.7 23.6
05:05 1021 30.15 850 25.1 0 32 71 -4.7 23.6
05:10 1021 30.15 850 25.1 0.1 32.2 69 -4.9 23.2
05:15 1021 30.15 850 25.1 0 32.1 70 -4.7 23.5
05:20 1021 30.15 850 25.1 -0.1 31.8 71 -4.8 23.4
05:25 1021 30.15 850 25.1 -0.2 31.6 69 -5.2 22.7
05:30 1021 30.15 850 25.1 -0.3 31.4 69 -5.3 22.4
05:35 1021 30.15 850 25.1 -0.2 31.6 69 -5.3 22.5
05:40 1021 30.15 850 25.1 -0.2 31.6 69 -5.3 22.5
05:45 1021 30.15 850 25.1 -0.3 31.5 68 -5.4 22.2
05:50 1021 30.15 850 25.1 -0.4 31.4 68 -5.6 22
05:55 1021 30.15 850 25.1 -0.3 31.4 68 -5.5 22.1
06:00 1021 30.15 850 25.1 -0.3 31.4 68 -5.6 22
06:05 1021 30.15 850 25.1 -0.3 31.4 67 -5.7 21.8
06:10 1021 30.15 850 25.1 -0.3 31.5 68 -5.4 22.2
06:15 1021 30.15 850 25.1 -0.3 31.5 69 -5.4 22.4
06:20 1021 30.15 850 25.1 -0.4 31.3 69 -5.4 22.3
06:25 1021 30.15 850 25.1 -0.6 30.8 69 -5.5 22
06:30 1021 30.15 850 25.1 -0.7 30.8 69 -5.7 21.7
06:35 1021 30.15 850 25.1 -0.7 30.8 69 -5.7 21.7
06:40 1021 30.15 850 25.1 -0.7 30.8 68 -5.8 21.6
06:45 1021 30.15 850 25.1 -0.9 30.4 69 -5.8 21.5
06:50 1021 30.15 850 25.1 -1.1 30.1 70 -5.9 21.4
06:55 1021 30.15 850 25.1 -1.1 30 70 -6 21.3
07:00 1021 30.15 850 25.1 -1.2 29.8 71 -5.9 21.4
07:05 1021 30.15 850 25.1 -1.5 29.3 72 -5.9 21.3
07:10 1021 30.15 850 25.1 -1.7 29 72 -6 21.1
07:15 1021 30.15 850 25.1 -1.7 29 72 -6 21.2
07:20 1021 30.15 850 25.1 -1.6 29.2 71 -6.1 21
07:25 1021 30.15 850 25.1 -1.5 29.2 71 -6.2 20.8
07:30 1021 30.15 850 25.1 -1.5 29.4 69 -6.4 20.6
07:35 1021 30.15 850 25.1 -1.6 29.2 69 -6.6 20.1
07:40 1021 30.15 850 25.1 -1.3 29.6 68 -6.6 20.2
07:45 1021 30.15 850 25.1 -1.5 29.3 68 -6.7 20
07:50 1021 30.15 850 25.1 -1.6 29.2 68 -6.8 19.8
07:55 1021 30.15 850 25.1 -1.8 28.8 70 -6.6 20.1
08:00 1021 30.15 850 25.1 -2.2 28.1 71 -6.8 19.8
08:05 1021 30.15 850 25.1 -2 28.5 68 -7.2 19.1
08:10 1021 30.15 850 25.1 -1.6 29 68 -6.8 19.8
08:15 1021 30.15 850 25.1 -1.7 28.9 68 -6.9 19.5
08:20 1021 30.15 850 25.1 -1.3 29.7 66 -6.9 19.6
08:25 1021 30.15 850 25.1 -1.2 29.8 65 -6.9 19.6
08:30 1021 30.15 850 25.1 -1 30.1 65 -6.8 19.8
08:35 1021 30.15 851 25.13 -1 30.1 66 -6.6 20.1
08:40 1021 30.15 851 25.13 -1.2 29.9 66 -6.7 20
08:45 1021 30.15 851 25.13 -1.2 29.8 66 -6.9 19.6
08:50 1021 30.15 851 25.13 -1.1 30 65 -6.9 19.5
08:55 1022 30.18 851 25.13 -1 30.2 65 -6.8 19.8
09:00 1022 30.18 851 25.13 -0.8 30.6 63 -6.9 19.6
09:05 1022 30.18 851 25.13 -0.5 31.1 64 -6.6 20.2
09:10 1021 30.15 851 25.13 -0.3 31.4 63 -6.6 20.1
09:15 1022 30.18 851 25.13 0 32 60 -6.8 19.7
09:20 1022 30.18 851 25.13 0.2 32.3 60 -6.6 20.1
09:25 1022 30.18 851 25.13 0.6 33.1 58 -6.7 19.9
09:30 1021 30.15 851 25.13 0.7 33.2 59 -6.5 20.3
09:35 1021 30.15 851 25.13 0.9 33.6 59 -6.2 20.8
09:40 1021 30.15 851 25.13 1.3 34.4 56 -6.5 20.3
09:45 1022 30.18 851 25.13 1.8 35.2 56 -6 21.2
09:50 1022 30.18 851 25.13 2 35.6 55 -6 21.1
09:55 1022 30.18 851 25.13 2.6 36.6 54 -5.8 21.5
10:00 1022 30.18 851 25.13 2.8 37.1 54 -5.7 21.8
10:05 1022 30.18 851 25.13 2.4 36.4 53 -6.1 21
10:10 1022 30.18 851 25.13 2.9 37.2 55 -5.3 22.5
10:15 1022 30.18 851 25.13 3.8 38.9 52 -5.1 22.9
10:20 1022 30.18 851 25.13 4.4 39.8 52 -4.6 23.8
10:25 1022 30.18 851 25.13 4.5 40.1 49 -5.3 22.4
10:30 1022 30.18 851 25.13 4.4 39.9 50 -5.2 22.7
10:35 1022 30.18 851 25.13 4.8 40.7 49 -5 22.9
10:40 1022 30.18 851 25.13 5.1 41.2 46 -5.5 22.2
10:45 1022 30.18 851 25.13 4.9 40.8 47 -5.5 22.2
10:50 1022 30.18 851 25.13 5 41.1 46 -5.7 21.7
10:55 1022 30.18 851 25.13 5.2 41.4 43 -6.3 20.6
11:00 1022 30.18 851 25.13 4.8 40.7 44 -6.3 20.7
11:05 1022 30.18 851 25.13 5.1 41.2 46 -5.7 21.8
11:10 1022 30.18 851 25.13 5.4 41.7 44 -5.8 21.6
11:15 1022 30.18 851 25.13 5.8 42.5 44 -5.4 22.2
11:20 1022 30.18 851 25.13 5.6 42 50 -4 24.7
11:25 1022 30.18 851 25.13 6.1 42.9 45 -4.8 23.3
11:30 1022 30.18 851 25.13 6.5 43.7 44 -5 23
11:35 1022 30.18 851 25.13 6.7 44 45 -4.4 24
11:40 1022 30.18 851 25.13 6.1 42.9 47 -4.5 24
11:45 1022 30.18 851 25.13 6.6 43.8 42 -5.4 22.3
11:50 1022 30.18 851 25.13 6.6 43.9 44 -4.8 23.3
11:55 1022 30.18 851 25.13 6.5 43.8 40 -6 21.2
12:00 1022 30.18 851 25.13 6.7 44.1 40 -6.1 21.1
12:05 1022 30.18 851 25.13 6.9 44.4 38 -6.6 20.2
12:10 1022 30.18 851 25.13 5.9 42.5 43 -5.9 21.4
12:15 1021 30.15 851 25.13 6.4 43.6 39 -6.6 20.1
12:20 1021 30.15 851 25.13 7.4 45.3 36 -6.8 19.8
12:25 1021 30.15 851 25.13 7.2 45 35 -7.1 19.2
12:30 1021 30.15 851 25.13 6.2 43.2 39 -6.9 19.6
12:35 1021 30.15 850 25.1 6.2 43.2 38 -7 19.4
12:40 1021 30.15 850 25.1 6.4 43.5 37 -7.3 18.8
12:45 1021 30.15 850 25.1 7.3 45.1 34 -7.7 18.1
12:50 1021 30.15 850 25.1 7.8 46 33 -7.4 18.7
12:55 1021 30.15 850 25.1 8.1 46.5 32 -7.5 18.5
13:00 1021 30.15 850 25.1 8 46.3 32 -7.6 18.3
13:05 1021 30.15 850 25.1 7.6 45.7 32 -7.9 17.8
13:10 1021 30.15 850 25.1 7.4 45.3 32 -8.3 17.1
13:15 1020 30.12 850 25.1 8 46.5 32 -7.5 18.5
13:20 1020 30.12 850 25.1 9 48.2 29 -8 17.6
13:25 1020 30.12 850 25.1 8.9 48.1 29 -8.3 17
13:30 1020 30.12 849 25.07 9 48.2 29 -8.1 17.4
13:35 1020 30.12 849 25.07 9.1 48.3 29 -7.9 17.8
13:40 1020 30.12 849 25.07 9.3 48.8 29 -7.8 18
13:45 1020 30.12 849 25.07 9.6 49.3 28 -7.8 17.9
13:50 1020 30.12 849 25.07 10.5 50.8 28 -7.5 18.5
13:55 1020 30.12 849 25.07 10.5 50.8 29 -6.9 19.5
14:00 1020 30.12 849 25.07 9.9 49.8 28 -7.6 18.3
14:05 1020 30.12 849 25.07 10.1 50.3 28 -7.7 18.1
14:10 1019 30.09 849 25.07 10.3 50.6 28 -7.6 18.3
14:15 1019 30.09 849 25.07 10.8 51.5 26 -7.7 18.1
14:20 1019 30.09 849 25.07 11.1 52 26 -7.7 18.2
14:25 1019 30.09 848 25.04 11.2 52.1 26 -7.6 18.3
14:30 1019 30.09 848 25.04 11 51.8 26 -7.8 17.9
14:35 1019 30.09 848 25.04 11.3 52.4 26 -7.6 18.3
14:40 1019 30.09 848 25.04 11.2 52.1 27 -7.2 19.1
14:45 1019 30.09 848 25.04 10.8 51.5 27 -7.4 18.7
14:50 1019 30.09 848 25.04 11.2 52.2 26 -7.4 18.6
14:55 1019 30.09 848 25.04 11.5 52.7 26 -7.4 18.7
15:00 1019 30.09 848 25.04 11.3 52.3 27 -7.2 19
15:05 1019 30.09 848 25.04 11.9 53.4 25 -7.8 18
15:10 1019 30.09 848 25.04 12.4 54.3 24 -7.8 18
15:15 1019 30.09 848 25.04 12.1 53.7 26 -6.8 19.8
15:20 1019 30.09 848 25.04 12.2 53.9 24 -7.7 18.2
15:25 1019 30.09 848 25.04 12.7 54.8 24 -7.2 19
15:30 1019 30.09 848 25.04 12.1 53.8 25 -7.2 19.1
15:35 1019 30.09 848 25.04 12.1 53.7 26 -7 19.4
15:40 1018 30.06 848 25.04 12.7 54.9 25 -6.8 19.7
15:45 1018 30.06 848 25.04 12.7 54.9 23 -7.7 18.2
15:50 1018 30.06 847 25.01 11.5 52.7 24 -8.5 16.7
15:55 1018 30.06 847 25.01 11.6 52.9 25 -7.7 18.2
16:00 1018 30.06 847 25.01 12.3 54.1 27 -6.3 20.7
16:05 1018 30.06 847 25.01 11.8 53.2 27 -6.4 20.5
16:10 1018 30.06 847 25.01 11.5 52.7 26 -7.2 19.1
16:15 1018 30.06 847 25.01 11.4 52.6 23 -9 15.8
16:20 1018 30.06 847 25.01 12 53.7 22 -8.9 16
16:25 1018 30.06 847 25.01 12.6 54.6 22 -8.5 16.7
16:30 1018 30.06 847 25.01 13.2 55.8 22 -8.1 17.4
16:35 1018 30.06 847 25.01 13 55.3 22 -8 17.5
16:40 1018 30.06 847 25.01 12.9 55.2 23 -7.8 18
16:45 1017 30.03 847 25.01 12.3 54.1 24 -7.6 18.3
16:50 1017 30.03 847 25.01 12.4 54.3 24 -7.7 18.1
16:55 1017 30.03 847 25.01 12.5 54.5 22 -8.7 16.4
17:00 1017 30.03 847 25.01 13.1 55.6 21 -8.7 16.4
17:05 1017 30.03 847 25.01 13.1 55.5 22 -8 17.6
17:10 1017 30.03 847 25.01 13.2 55.8 22 -8.1 17.4
17:15 1017 30.03 847 25.01 12.9 55.3 22 -8.2 17.2
17:20 1017 30.03 846 24.98 12.8 55 22 -8.5 16.8
17:25 1017 30.03 847 25.01 12.5 54.5 22 -8.7 16.3
17:30 1017 30.03 846 24.98 12.6 54.6 21 -9 15.9
17:35 1017 30.03 847 25.01 13 55.4 19 -10.3 13.4
17:40 1017 30.03 847 25.01 13.2 55.7 19 -9.9 14.1
17:45 1017 30.03 847 25.01 13.2 55.8 19 -10.2 13.6
17:50 1017 30.03 847 25.01 13.2 55.7 16 -12 10.4
17:55 1017 30.03 847 25.01 12.8 55 16 -12.2 10.1
18:00 1017 30.03 847 25.01 13.1 55.6 15 -12.8 8.9
18:05 1017 30.03 847 25.01 13.4 56.1 15 -12.8 9
18:10 1017 30.03 846 24.98 13.5 56.3 15 -12.6 9.3
18:15 1017 30.03 846 24.98 13.4 56 15 -12.8 8.9
18:20 1017 30.03 846 24.98 13.4 56.1 15 -12.5 9.5
18:25 1017 30.03 846 24.98 12.5 54.4 16 -12.9 8.8
18:30 1017 30.03 846 24.98 12.7 54.8 16 -12.8 9
18:35 1017 30.03 846 24.98 12.9 55.1 15 -13 8.6
18:40 1017 30.03 846 24.98 12.3 54.2 16 -12.7 9.1
18:45 1017 30.03 846 24.98 12.3 54.2 16 -12.5 9.6
18:50 1017 30.03 846 24.98 12.1 53.7 17 -12.1 10.1
18:55 1017 30.03 847 25.01 11.8 53.3 17 -12.4 9.7
19:00 1017 30.03 847 25.01 11.6 52.9 18 -12.1 10.2
19:05 1017 30.03 847 25.01 11.6 52.8 18 -12 10.5
19:10 1017 30.03 847 25.01 11.4 52.5 19 -11.7 10.9
19:15 1017 30.03 847 25.01 11 51.7 20 -10.9 12.4
19:20 1017 30.03 847 25.01 10.5 50.9 27 -7.7 18.2
19:25 1017 30.03 847 25.01 9.4 48.8 32 -6.4 20.5
19:30 1017 30.03 847 25.01 8.6 47.5 34 -6.5 20.4
19:35 1017 30.03 847 25.01 8.2 46.7 36 -5.9 21.4
19:40 1017 30.03 847 25.01 7.5 45.6 38 -5.9 21.4
19:45 1017 30.03 847 25.01 7.1 44.8 38 -6.3 20.7
19:50 1017 30.03 847 25.01 7 44.5 38 -6.5 20.4
19:55 1017 30.03 847 25.01 6.7 44.1 39 -6.4 20.6
20:00 1017 30.03 847 25.01 6.4 43.6 39 -6.4 20.4
20:05 1017 30.03 847 25.01 6.1 43 40 -6.5 20.2
20:10 1017 30.03 847 25.01 5.8 42.4 42 -6.1 21.1
20:15 1017 30.03 847 25.01 5.1 41.2 44 -6.3 20.7
20:20 1017 30.03 847 25.01 4.8 40.7 42 -7.1 19.2
20:25 1017 30.03 847 25.01 4.9 40.9 39 -7.9 17.8
20:30 1017 30.03 847 25.01 5.1 41.2 39 -7.8 18
20:35 1017 30.03 847 25.01 5 41.1 38 -8 17.5
20:40 1017 30.03 847 25.01 4.9 40.9 38 -8.2 17.2
20:45 1017 30.03 847 25.01 4.9 40.8 37 -8.5 16.7
20:50 1017 30.03 846 24.98 5 41 38 -8.2 17.3
20:55 1017 30.03 846 24.98 4.9 40.8 39 -7.8 18
21:00 1017 30.03 846 24.98 4.7 40.4 40 -7.9 17.8
21:05 1017 30.03 846 24.98 4.4 39.9 40 -8.2 17.3
21:10 1017 30.03 846 24.98 4.5 40.1 38 -8.7 16.4
21:15 1017 30.03 846 24.98 4.6 40.3 38 -8.5 16.7
21:20 1017 30.03 846 24.98 4.6 40.3 39 -8.2 17.2
21:25 1017 30.03 846 24.98 4.5 40.2 37 -9 15.9
21:30 1017 30.03 846 24.98 4.8 40.7 38 -8.2 17.2
21:35 1017 30.03 846 24.98 4.4 40 38 -8.6 16.6
21:40 1017 30.03 846 24.98 4.6 40.4 40 -8 17.6
21:45 1017 30.03 846 24.98 4.5 40.1 38 -8.7 16.4
21:50 1017 30.03 846 24.98 4.7 40.5 36 -9.2 15.5
21:55 1017 30.03 846 24.98 4.7 40.5 37 -8.8 16.1
22:00 1017 30.03 846 24.98 4.6 40.3 36 -9 15.8
22:05 1017 30.03 846 24.98 4.8 40.6 35 -9.4 15.1
22:10 1017 30.03 846 24.98 4.9 40.8 35 -9.2 15.4
22:15 1017 30.03 846 24.98 4.9 40.8 35 -9.5 14.9
22:20 1017 30.03 846 24.98 5.4 41.8 33 -9.5 14.9
22:25 1017 30.03 846 24.98 5.2 41.4 34 -9.5 15
22:30 1017 30.03 846 24.98 5.1 41.2 34 -9.5 14.8
22:35 1017 30.03 846 24.98 4.7 40.5 36 -9 15.8
22:40 1017 30.03 846 24.98 4.4 40 36 -9.4 15.2
22:45 1017 30.03 846 24.98 4.2 39.6 37 -9.4 15.1
22:50 1017 30.03 846 24.98 4.3 39.7 36 -9.4 15.1
22:55 1017 30.03 846 24.98 4.3 39.7 36 -9.6 14.7
23:00 1017 30.03 846 24.98 4.4 39.9 36 -9.6 14.8
23:05 1017 30.03 846 24.98 4.3 39.7 36 -9.4 15
23:10 1017 30.03 846 24.98 4.2 39.6 35 -9.8 14.3
23:15 1017 30.03 846 24.98 4.4 40 35 -9.8 14.4
23:20 1017 30.03 846 24.98 4.5 40.1 34 -10 14
23:25 1016 30 846 24.98 4.5 40.2 35 -9.7 14.5
23:30 1017 30.03 846 24.98 4.4 40 35 -9.6 14.6
23:35 1017 30.03 846 24.98 4.3 39.7 35 -10 14
23:40 1016 30 846 24.98 4.3 39.7 36 -9.5 14.9
23:45 1016 30 846 24.98 4.2 39.5 35 -9.8 14.4
23:50 1016 30 845 24.95 4.6 40.4 33 -10.2 13.6
23:55 1016 30 845 24.95 5.4 41.8 32 -9.8 14.4
24:00 1016 30 846 24.98 5 41.1 34 -9.6 14.6